sensor_id;sensor_type;location;lat;lon;timestamp;pressure;altitude;pressure_sealevel;temperature;humidity
20228;BME280;12195;55.790;37.572;2023-03-26T00:02:17;98411.45;;;9.69;78.11
20228;BME280;12195;55.790;37.572;2023-03-26T00:04:49;98399.30;;;9.68;78.31
20228;BME280;12195;55.790;37.572;2023-03-26T00:07:23;98397.52;;;9.69;78.31
20228;BME280;12195;55.790;37.572;2023-03-26T00:09:55;98398.23;;;9.71;78.37
20228;BME280;12195;55.790;37.572;2023-03-26T00:12:28;98401.81;;;9.70;78.04
20228;BME280;12195;55.790;37.572;2023-03-26T00:15:03;98398.34;;;9.69;77.89
20228;BME280;12195;55.790;37.572;2023-03-26T00:17:35;98402.66;;;9.70;78.07
20228;BME280;12195;55.790;37.572;2023-03-26T00:20:08;98394.69;;;9.72;78.22
20228;BME280;12195;55.790;37.572;2023-03-26T00:22:41;98388.70;;;9.70;78.24
20228;BME280;12195;55.790;37.572;2023-03-26T00:25:13;98390.38;;;9.71;78.09
20228;BME280;12195;55.790;37.572;2023-03-26T00:27:45;98396.47;;;9.71;77.82
20228;BME280;12195;55.790;37.572;2023-03-26T00:30:19;98394.55;;;9.73;78.06
20228;BME280;12195;55.790;37.572;2023-03-26T00:32:51;98399.80;;;9.73;77.79
20228;BME280;12195;55.790;37.572;2023-03-26T00:35:23;98407.66;;;9.73;77.98
20228;BME280;12195;55.790;37.572;2023-03-26T00:37:55;98408.41;;;9.75;77.95
20228;BME280;12195;55.790;37.572;2023-03-26T00:40:28;98398.98;;;9.73;77.72
20228;BME280;12195;55.790;37.572;2023-03-26T00:43:01;98393.73;;;9.73;77.62
20228;BME280;12195;55.790;37.572;2023-03-26T00:45:35;98398.23;;;9.71;77.38
20228;BME280;12195;55.790;37.572;2023-03-26T00:48:07;98401.81;;;9.70;77.31
20228;BME280;12195;55.790;37.572;2023-03-26T00:50:40;98400.25;;;9.67;77.58
20228;BME280;12195;55.790;37.572;2023-03-26T00:53:13;98395.01;;;9.67;77.43
20228;BME280;12195;55.790;37.572;2023-03-26T00:55:46;98394.16;;;9.67;77.69
20228;BME280;12195;55.790;37.572;2023-03-26T00:58:18;98391.64;;;9.65;77.61
20228;BME280;12195;55.790;37.572;2023-03-26T01:01:03;98382.86;;;9.66;77.79
20228;BME280;12195;55.790;37.572;2023-03-26T01:03:29;98382.02;;;9.66;77.62
20228;BME280;12195;55.790;37.572;2023-03-26T01:06:21;98382.02;;;9.66;77.54
20228;BME280;12195;55.790;37.572;2023-03-26T01:08:54;98382.97;;;9.65;77.41
20228;BME280;12195;55.790;37.572;2023-03-26T01:11:31;98375.22;;;9.63;77.39
20228;BME280;12195;55.790;37.572;2023-03-26T01:14:09;98372.59;;;9.63;77.46
20228;BME280;12195;55.790;37.572;2023-03-26T01:16:49;98374.26;;;9.64;77.49
20228;BME280;12195;55.790;37.572;2023-03-26T01:22:17;98373.55;;;9.62;77.45
20228;BME280;12195;55.790;37.572;2023-03-26T01:24:50;98374.26;;;9.64;77.49
20228;BME280;12195;55.790;37.572;2023-03-26T01:27:33;98371.74;;;9.63;77.26
20228;BME280;12195;55.790;37.572;2023-03-26T01:30:08;98379.60;;;9.63;77.17
20228;BME280;12195;55.790;37.572;2023-03-26T01:38:22;98383.53;;;9.57;76.90
20228;BME280;12195;55.790;37.572;2023-03-26T01:44:02;98370.14;;;9.49;77.08
20228;BME280;12195;55.790;37.572;2023-03-26T01:46:33;98368.44;;;9.48;76.87
20228;BME280;12195;55.790;37.572;2023-03-26T01:49:06;98365.11;;;9.46;77.04
20228;BME280;12195;55.790;37.572;2023-03-26T01:51:44;98361.64;;;9.46;77.25
20228;BME280;12195;55.790;37.572;2023-03-26T01:54:20;98357.15;;;9.48;77.34
20228;BME280;12195;55.790;37.572;2023-03-26T01:57:02;98349.05;;;9.51;77.20
20228;BME280;12195;55.790;37.572;2023-03-26T02:00:02;98345.61;;;9.50;77.10
20228;BME280;12195;55.790;37.572;2023-03-26T02:02:37;98339.30;;;9.53;76.84
20228;BME280;12195;55.790;37.572;2023-03-26T02:05:28;98343.48;;;9.55;76.70
20228;BME280;12195;55.790;37.572;2023-03-26T02:10:39;98349.58;;;9.56;76.28
20228;BME280;12195;55.790;37.572;2023-03-26T02:13:12;98350.28;;;9.58;76.12
20228;BME280;12195;55.790;37.572;2023-03-26T02:16:03;98348.52;;;9.58;76.10
20228;BME280;12195;55.790;37.572;2023-03-26T02:18:28;98352.09;;;9.57;76.12
20228;BME280;12195;55.790;37.572;2023-03-26T02:21:14;98350.17;;;9.59;76.01
20228;BME280;12195;55.790;37.572;2023-03-26T02:23:43;98348.52;;;9.58;75.62
20228;BME280;12195;55.790;37.572;2023-03-26T02:26:18;98338.03;;;9.58;75.51
20228;BME280;12195;55.790;37.572;2023-03-26T02:28:55;98338.03;;;9.58;75.41
20228;BME280;12195;55.790;37.572;2023-03-26T02:31:27;98346.84;;;9.57;75.22
20228;BME280;12195;55.790;37.572;2023-03-26T02:34:00;98340.76;;;9.57;75.35
20228;BME280;12195;55.790;37.572;2023-03-26T02:36:34;98337.29;;;9.56;75.21
20228;BME280;12195;55.790;37.572;2023-03-26T02:39:06;98342.63;;;9.55;75.02
20228;BME280;12195;55.790;37.572;2023-03-26T02:41:39;98341.82;;;9.54;75.01
20228;BME280;12195;55.790;37.572;2023-03-26T02:44:13;98339.41;;;9.51;74.72
20228;BME280;12195;55.790;37.572;2023-03-26T02:47:02;98338.45;;;9.52;74.83
20228;BME280;12195;55.790;37.572;2023-03-26T02:49:52;98338.56;;;9.51;74.93
20228;BME280;12195;55.790;37.572;2023-03-26T02:52:32;98328.22;;;9.49;74.88
20228;BME280;12195;55.790;37.572;2023-03-26T02:55:04;98323.20;;;9.46;74.95
20228;BME280;12195;55.790;37.572;2023-03-26T02:57:37;98327.59;;;9.46;74.91
20228;BME280;12195;55.790;37.572;2023-03-26T03:00:13;98323.41;;;9.43;75.01
20228;BME280;12195;55.790;37.572;2023-03-26T03:02:50;98321.85;;;9.41;75.03
20228;BME280;12195;55.790;37.572;2023-03-26T03:05:35;98324.58;;;9.39;75.09
20228;BME280;12195;55.790;37.572;2023-03-26T03:08:23;98321.95;;;9.39;75.26
20228;BME280;12195;55.790;37.572;2023-03-26T03:11:17;98316.83;;;9.38;75.40
20228;BME280;12195;55.790;37.572;2023-03-26T03:13:52;98310.88;;;9.36;75.45
20228;BME280;12195;55.790;37.572;2023-03-26T03:16:26;98306.59;;;9.35;75.50
20228;BME280;12195;55.790;37.572;2023-03-26T03:18:59;98307.52;;;9.34;75.61
20228;BME280;12195;55.790;37.572;2023-03-26T03:21:40;98308.36;;;9.34;75.48
20228;BME280;12195;55.790;37.572;2023-03-26T03:24:12;98307.52;;;9.34;75.49
20228;BME280;12195;55.790;37.572;2023-03-26T03:29:38;98301.35;;;9.35;75.59
20228;BME280;12195;55.790;37.572;2023-03-26T03:32:30;98290.98;;;9.33;75.74
20228;BME280;12195;55.790;37.572;2023-03-26T03:35:05;98302.17;;;9.35;75.72
20228;BME280;12195;55.790;37.572;2023-03-26T03:37:37;98288.12;;;9.36;75.77
20228;BME280;12195;55.790;37.572;2023-03-26T03:40:09;98284.68;;;9.36;75.80
20228;BME280;12195;55.790;37.572;2023-03-26T03:42:42;98281.95;;;9.37;75.72
20228;BME280;12195;55.790;37.572;2023-03-26T03:45:16;98282.66;;;9.39;75.83
20228;BME280;12195;55.790;37.572;2023-03-26T03:47:49;98268.75;;;9.39;75.79
20228;BME280;12195;55.790;37.572;2023-03-26T03:50:24;98276.36;;;9.42;75.74
20228;BME280;12195;55.790;37.572;2023-03-26T03:52:58;98271.02;;;9.43;75.56
20228;BME280;12195;55.790;37.572;2023-03-26T03:55:31;98265.56;;;9.46;75.72
20228;BME280;12195;55.790;37.572;2023-03-26T03:58:04;98258.52;;;9.47;75.71
20228;BME280;12195;55.790;37.572;2023-03-26T04:00:38;98259.27;;;9.49;75.53
20228;BME280;12195;55.790;37.572;2023-03-26T04:03:19;98264.28;;;9.52;75.81
20228;BME280;12195;55.790;37.572;2023-03-26T04:05:54;98255.47;;;9.53;75.79
20228;BME280;12195;55.790;37.572;2023-03-26T04:08:27;98260.49;;;9.56;75.78
20228;BME280;12195;55.790;37.572;2023-03-26T04:10:59;98261.41;;;9.78;76.50
20228;BME280;12195;55.790;37.572;2023-03-26T04:13:50;98257.89;;;9.67;75.72
20228;BME280;12195;55.790;37.572;2023-03-26T04:16:23;98252.55;;;9.68;75.41
20228;BME280;12195;55.790;37.572;2023-03-26T04:18:56;98256.61;;;9.72;75.57
20228;BME280;12195;55.790;37.572;2023-03-26T04:21:28;98249.48;;;9.74;75.50
20228;BME280;12195;55.790;37.572;2023-03-26T04:24:01;98255.32;;;9.78;75.45
20228;BME280;12195;55.790;37.572;2023-03-26T04:26:50;98243.55;;;9.83;75.29
20228;BME280;12195;55.790;37.572;2023-03-26T04:29:24;98244.03;;;9.88;75.17
20228;BME280;12195;55.790;37.572;2023-03-26T04:31:58;98228.78;;;9.93;75.19
20228;BME280;12195;55.790;37.572;2023-03-26T04:34:33;98221.28;;;9.89;74.83
20228;BME280;12195;55.790;37.572;2023-03-26T04:37:25;98231.66;;;10.01;74.87
20228;BME280;12195;55.790;37.572;2023-03-26T04:40:14;98230.52;;;10.05;74.55
20228;BME280;12195;55.790;37.572;2023-03-26T04:42:48;98230.29;;;10.08;74.27
20228;BME280;12195;55.790;37.572;2023-03-26T04:45:21;98231.72;;;10.12;74.36
20228;BME280;12195;55.790;37.572;2023-03-26T04:47:56;98225.18;;;10.18;74.46
20228;BME280;12195;55.790;37.572;2023-03-26T04:50:29;98219.56;;;10.22;74.39
20228;BME280;12195;55.790;37.572;2023-03-26T04:53:01;98223.63;;;10.26;74.36
20228;BME280;12195;55.790;37.572;2023-03-26T04:58:21;98214.80;;;10.38;74.59
20228;BME280;12195;55.790;37.572;2023-03-26T05:01:00;98204.66;;;10.45;74.47
20228;BME280;12195;55.790;37.572;2023-03-26T05:03:36;98209.34;;;10.52;74.15
20228;BME280;12195;55.790;37.572;2023-03-26T05:06:12;98207.77;;;10.61;74.15
20228;BME280;12195;55.790;37.572;2023-03-26T05:08:45;98207.99;;;10.69;74.19
20228;BME280;12195;55.790;37.572;2023-03-26T05:11:19;98201.42;;;10.74;73.59
20228;BME280;12195;55.790;37.572;2023-03-26T05:13:52;98204.40;;;10.81;73.42
20228;BME280;12195;55.790;37.572;2023-03-26T05:16:24;98202.39;;;10.84;73.35
20228;BME280;12195;55.790;37.572;2023-03-26T05:18:58;98195.20;;;10.86;73.42
20228;BME280;12195;55.790;37.572;2023-03-26T05:21:32;98193.88;;;10.92;73.29
20228;BME280;12195;55.790;37.572;2023-03-26T05:24:05;98200.56;;;10.96;73.61
20228;BME280;12195;55.790;37.572;2023-03-26T05:26:38;98190.52;;;11.01;73.71
20228;BME280;12195;55.790;37.572;2023-03-26T05:29:16;98191.09;;;11.04;73.61
20228;BME280;12195;55.790;37.572;2023-03-26T05:31:45;98195.98;;;11.09;73.68
20228;BME280;12195;55.790;37.572;2023-03-26T05:34:19;98201.00;;;11.12;73.64
20228;BME280;12195;55.790;37.572;2023-03-26T05:36:53;98206.25;;;11.12;73.61
20228;BME280;12195;55.790;37.572;2023-03-26T05:39:35;98206.83;;;11.16;73.23
20228;BME280;12195;55.790;37.572;2023-03-26T05:42:26;98209.69;;;11.13;73.99
20228;BME280;12195;55.790;37.572;2023-03-26T05:45:02;98204.44;;;11.13;74.13
20228;BME280;12195;55.790;37.572;2023-03-26T05:47:35;98199.67;;;11.18;74.12
20228;BME280;12195;55.790;37.572;2023-03-26T05:50:09;98202.75;;;11.23;74.11
20228;BME280;12195;55.790;37.572;2023-03-26T05:52:42;98209.55;;;11.25;73.67
20228;BME280;12195;55.790;37.572;2023-03-26T05:55:32;98198.00;;;11.48;73.73
20228;BME280;12195;55.790;37.572;2023-03-26T05:58:06;98199.94;;;11.35;73.47
20228;BME280;12195;55.790;37.572;2023-03-26T06:00:43;98201.48;;;11.38;73.07
20228;BME280;12195;55.790;37.572;2023-03-26T06:03:18;98197.92;;;11.39;73.25
20228;BME280;12195;55.790;37.572;2023-03-26T06:05:53;98195.30;;;11.39;73.14
20228;BME280;12195;55.790;37.572;2023-03-26T06:08:27;98195.86;;;11.42;73.22
20228;BME280;12195;55.790;37.572;2023-03-26T06:11:02;98183.17;;;11.47;72.73
20228;BME280;12195;55.790;37.572;2023-03-26T06:13:37;98186.41;;;11.51;72.13
20228;BME280;12195;55.790;37.572;2023-03-26T06:16:10;98182.56;;;11.55;72.04
20228;BME280;12195;55.790;37.572;2023-03-26T06:18:48;98174.52;;;11.56;71.77
20228;BME280;12195;55.790;37.572;2023-03-26T06:21:28;98167.48;;;11.57;71.62
20228;BME280;12195;55.790;37.572;2023-03-26T06:24:05;98170.11;;;11.57;71.83
20228;BME280;12195;55.790;37.572;2023-03-26T06:26:45;98162.34;;;11.55;72.02
20228;BME280;12195;55.790;37.572;2023-03-26T06:29:22;98155.80;;;11.50;72.05
20228;BME280;12195;55.790;37.572;2023-03-26T06:31:59;98153.45;;;11.47;72.68
20228;BME280;12195;55.790;37.572;2023-03-26T06:34:35;98152.28;;;11.40;73.09
20228;BME280;12195;55.790;37.572;2023-03-26T06:37:06;98151.71;;;11.36;74.00
20228;BME280;12195;55.790;37.572;2023-03-26T06:39:39;98150.30;;;11.32;74.23
20228;BME280;12195;55.790;37.572;2023-03-26T06:42:16;98149.00;;;11.27;74.91
20228;BME280;12195;55.790;37.572;2023-03-26T06:44:58;98139.95;;;11.20;74.99
20228;BME280;12195;55.790;37.572;2023-03-26T06:47:38;98140.06;;;11.18;74.73
20228;BME280;12195;55.790;37.572;2023-03-26T06:50:19;98139.95;;;11.20;76.20
20228;BME280;12195;55.790;37.572;2023-03-26T06:53:09;98128.35;;;11.22;76.77
20228;BME280;12195;55.790;37.572;2023-03-26T06:55:49;98138.17;;;11.20;76.43
20228;BME280;12195;55.790;37.572;2023-03-26T06:58:28;98136.63;;;11.18;76.75
20228;BME280;12195;55.790;37.572;2023-03-26T07:01:18;98136.14;;;11.13;76.42
20228;BME280;12195;55.790;37.572;2023-03-26T07:04:08;98133.06;;;11.08;76.63
20228;BME280;12195;55.790;37.572;2023-03-26T07:06:57;98134.88;;;11.07;77.69
20228;BME280;12195;55.790;37.572;2023-03-26T07:09:49;98124.50;;;11.06;77.86
20228;BME280;12195;55.790;37.572;2023-03-26T07:12:39;98116.63;;;11.06;77.78
20228;BME280;12195;55.790;37.572;2023-03-26T07:15:22;98105.84;;;11.08;78.74
20228;BME280;12195;55.790;37.572;2023-03-26T07:18:03;98111.94;;;11.09;78.15
20228;BME280;12195;55.790;37.572;2023-03-26T07:20:37;98103.69;;;11.14;78.67
20228;BME280;12195;55.790;37.572;2023-03-26T07:23:18;98093.88;;;11.16;78.13
20228;BME280;12195;55.790;37.572;2023-03-26T07:25:56;98091.12;;;11.17;78.12
20228;BME280;12195;55.790;37.572;2023-03-26T07:28:43;98089.72;;;11.13;77.94
20228;BME280;12195;55.790;37.572;2023-03-26T07:31:33;98082.92;;;11.11;78.18
20228;BME280;12195;55.790;37.572;2023-03-26T07:43:56;98081.51;;;11.07;78.51
20228;BME280;12195;55.790;37.572;2023-03-26T07:46:44;98080.09;;;11.03;78.64
20228;BME280;12195;55.790;37.572;2023-03-26T07:49:34;98080.34;;;10.99;79.35
20228;BME280;12195;55.790;37.572;2023-03-26T07:52:25;98072.98;;;10.93;79.21
20228;BME280;12195;55.790;37.572;2023-03-26T07:55:13;98072.77;;;10.85;78.95
20228;BME280;12195;55.790;37.572;2023-03-26T07:58:15;98071.59;;;10.78;79.21
20228;BME280;12195;55.790;37.572;2023-03-26T08:01:00;98064.09;;;10.74;79.39
20228;BME280;12195;55.790;37.572;2023-03-26T08:06:28;98052.80;;;10.62;79.85
20228;BME280;12195;55.790;37.572;2023-03-26T08:09:18;98054.12;;;10.57;80.01
20228;BME280;12195;55.790;37.572;2023-03-26T08:15:35;98050.08;;;10.53;80.59
20228;BME280;12195;55.790;37.572;2023-03-26T08:18:34;98033.25;;;10.55;81.24
20228;BME280;12195;55.790;37.572;2023-03-26T08:21:10;98039.23;;;10.57;81.41
20228;BME280;12195;55.790;37.572;2023-03-26T08:26:59;98042.06;;;10.65;81.73
20228;BME280;12195;55.790;37.572;2023-03-26T08:32:17;98041.19;;;10.76;81.71
20228;BME280;12195;55.790;37.572;2023-03-26T08:34:50;98023.38;;;10.79;81.90
20228;BME280;12195;55.790;37.572;2023-03-26T08:37:22;98027.09;;;10.77;81.37
20228;BME280;12195;55.790;37.572;2023-03-26T08:39:55;98016.72;;;10.75;81.63
20228;BME280;12195;55.790;37.572;2023-03-26T08:42:46;98008.15;;;10.73;81.12
20228;BME280;12195;55.790;37.572;2023-03-26T08:54:06;98006.77;;;10.58;80.33
20228;BME280;12195;55.790;37.572;2023-03-26T08:56:45;98003.70;;;10.53;81.14
20228;BME280;12195;55.790;37.572;2023-03-26T09:10:07;97994.71;;;10.35;81.05
20228;BME280;12195;55.790;37.572;2023-03-26T09:19:00;97985.45;;;10.20;80.94
20228;BME280;12195;55.790;37.572;2023-03-26T09:21:36;97977.46;;;10.22;81.65
20228;BME280;12195;55.790;37.572;2023-03-26T09:27:17;97970.89;;;10.27;81.78
20228;BME280;12195;55.790;37.572;2023-03-26T09:41:11;97974.38;;;10.48;82.76
20228;BME280;12195;55.790;37.572;2023-03-26T09:55:55;97960.94;;;10.42;83.22
20228;BME280;12195;55.790;37.572;2023-03-26T10:12:35;97951.33;;;10.31;82.35
20228;BME280;12195;55.790;37.572;2023-03-26T10:18:13;97941.83;;;10.19;82.97
20228;BME280;12195;55.790;37.572;2023-03-26T10:20:51;97951.37;;;10.09;82.47
20228;BME280;12195;55.790;37.572;2023-03-26T10:26:28;97935.88;;;10.06;82.50
20228;BME280;12195;55.790;37.572;2023-03-26T10:41:01;97932.05;;;10.10;84.24
20228;BME280;12195;55.790;37.572;2023-03-26T10:43:49;97923.26;;;10.11;84.48
20228;BME280;12195;55.790;37.572;2023-03-26T10:46:23;97925.37;;;10.17;84.46
20228;BME280;12195;55.790;37.572;2023-03-26T10:49:17;97921.66;;;10.20;84.74
20228;BME280;12195;55.790;37.572;2023-03-26T10:51:57;97920.58;;;10.22;84.74
20228;BME280;12195;55.790;37.572;2023-03-26T10:54:35;97919.52;;;10.25;84.49
20228;BME280;12195;55.790;37.572;2023-03-26T10:57:11;97916.62;;;10.28;84.45
20228;BME280;12195;55.790;37.572;2023-03-26T10:59:43;97918.44;;;10.27;84.47
20228;BME280;12195;55.790;37.572;2023-03-26T11:02:26;97914.84;;;10.28;84.33
20228;BME280;12195;55.790;37.572;2023-03-26T11:08:00;97903.14;;;10.32;84.52
20228;BME280;12195;55.790;37.572;2023-03-26T11:10:40;97903.14;;;10.32;84.28
20228;BME280;12195;55.790;37.572;2023-03-26T11:19:15;97904.92;;;10.32;84.40
20228;BME280;12195;55.790;37.572;2023-03-26T11:22:11;97905.89;;;10.31;84.43
20228;BME280;12195;55.790;37.572;2023-03-26T11:33:30;97901.97;;;10.25;84.05
20228;BME280;12195;55.790;37.572;2023-03-26T11:36:15;97891.73;;;10.22;83.81
20228;BME280;12195;55.790;37.572;2023-03-26T11:38:49;97899.75;;;10.21;84.24
20228;BME280;12195;55.790;37.572;2023-03-26T11:41:26;97891.73;;;10.22;84.35
20228;BME280;12195;55.790;37.572;2023-03-26T11:46:43;97895.07;;;10.24;83.87
20228;BME280;12195;55.790;37.572;2023-03-26T11:49:18;97896.03;;;10.23;83.90
20228;BME280;12195;55.790;37.572;2023-03-26T11:51:51;97895.07;;;10.24;84.00
20228;BME280;12195;55.790;37.572;2023-03-26T11:54:24;97892.45;;;10.24;84.07
20228;BME280;12195;55.790;37.572;2023-03-26T11:57:00;97887.89;;;10.26;83.86
20228;BME280;12195;55.790;37.572;2023-03-26T11:59:37;97891.12;;;10.30;83.76
20228;BME280;12195;55.790;37.572;2023-03-26T12:02:26;97886.56;;;10.32;83.41
20228;BME280;12195;55.790;37.572;2023-03-26T12:05:12;97882.97;;;10.33;83.38
20228;BME280;12195;55.790;37.572;2023-03-26T12:07:49;97887.28;;;10.34;83.48
20228;BME280;12195;55.790;37.572;2023-03-26T12:10:36;97884.78;;;10.32;83.90
20228;BME280;12195;55.790;37.572;2023-03-26T12:13:36;97877.88;;;10.31;83.38
20228;BME280;12195;55.790;37.572;2023-03-26T12:16:16;97874.41;;;10.31;83.16
20228;BME280;12195;55.790;37.572;2023-03-26T12:18:44;97872.35;;;10.34;83.72
20228;BME280;12195;55.790;37.572;2023-03-26T12:21:18;97879.53;;;10.32;83.47
20228;BME280;12195;55.790;37.572;2023-03-26T12:24:02;97876.91;;;10.32;83.74
20228;BME280;12195;55.790;37.572;2023-03-26T12:26:42;97870.82;;;10.32;83.13
20228;BME280;12195;55.790;37.572;2023-03-26T12:29:17;97863.08;;;10.30;82.90
20228;BME280;12195;55.790;37.572;2023-03-26T12:31:55;97869.41;;;10.28;82.68
20228;BME280;12195;55.790;37.572;2023-03-26T12:34:37;97858.92;;;10.28;83.29
20228;BME280;12195;55.790;37.572;2023-03-26T12:37:37;97862.39;;;10.28;83.50
20228;BME280;12195;55.790;37.572;2023-03-26T12:43:19;97857.02;;;10.30;82.94
20228;BME280;12195;55.790;37.572;2023-03-26T12:45:43;97862.63;;;10.25;83.22
20228;BME280;12195;55.790;37.572;2023-03-26T12:48:17;97850.36;;;10.26;83.12
20228;BME280;12195;55.790;37.572;2023-03-26T12:51:00;97855.73;;;10.24;83.07
20228;BME280;12195;55.790;37.572;2023-03-26T13:02:01;97851.98;;;10.06;83.26
20228;BME280;12195;55.790;37.572;2023-03-26T13:10:07;97846.02;;;10.04;83.78
20228;BME280;12195;55.790;37.572;2023-03-26T13:15:37;97854.76;;;10.05;83.27
20228;BME280;12195;55.790;37.572;2023-03-26T13:18:51;97844.00;;;10.08;83.26
20228;BME280;12195;55.790;37.572;2023-03-26T13:21:03;97845.53;;;10.10;82.93
20228;BME280;12195;55.790;37.572;2023-03-26T13:29:21;97844.12;;;10.06;83.08
20228;BME280;12195;55.790;37.572;2023-03-26T13:38:10;97839.47;;;10.10;83.41
20228;BME280;12195;55.790;37.572;2023-03-26T13:46:47;97837.86;;;10.18;83.16
20228;BME280;12195;55.790;37.572;2023-03-26T13:57:34;97836.41;;;10.05;83.09
20228;BME280;12195;55.790;37.572;2023-03-26T14:00:18;97826.25;;;10.00;83.12
20228;BME280;12195;55.790;37.572;2023-03-26T14:03:00;97836.86;;;9.99;83.05
20228;BME280;12195;55.790;37.572;2023-03-26T14:05:33;97831.93;;;10.16;82.77
20228;BME280;12195;55.790;37.572;2023-03-26T14:08:18;97838.14;;;10.15;82.13
20228;BME280;12195;55.790;37.572;2023-03-26T14:11:00;97831.73;;;9.97;82.57
20228;BME280;12195;55.790;37.572;2023-03-26T14:13:46;97835.57;;;9.93;82.88
20228;BME280;12195;55.790;37.572;2023-03-26T14:16:24;97834.16;;;9.89;82.81
20228;BME280;12195;55.790;37.572;2023-03-26T14:22:11;97834.55;;;9.85;83.90
20228;BME280;12195;55.790;37.572;2023-03-26T14:30:47;97835.48;;;9.84;83.48
20228;BME280;12195;55.790;37.572;2023-03-26T14:41:54;97836.89;;;9.88;83.58
20228;BME280;12195;55.790;37.572;2023-03-26T14:47:30;97839.39;;;9.89;83.39
20228;BME280;12195;55.790;37.572;2023-03-26T14:52:56;97832.50;;;9.88;83.29
20228;BME280;12195;55.790;37.572;2023-03-26T14:55:46;97832.50;;;9.88;83.48
20228;BME280;12195;55.790;37.572;2023-03-26T14:58:40;97831.81;;;9.86;83.72
20228;BME280;12195;55.790;37.572;2023-03-26T15:01:27;97830.12;;;9.85;83.63
20228;BME280;12195;55.790;37.572;2023-03-26T15:04:30;97833.70;;;9.84;83.38
20228;BME280;12195;55.790;37.572;2023-03-26T15:12:43;97833.02;;;9.82;83.33
20228;BME280;12195;55.790;37.572;2023-03-26T15:18:29;97827.77;;;9.82;83.50
20228;BME280;12195;55.790;37.572;2023-03-26T15:21:25;97820.72;;;9.83;83.42
20228;BME280;12195;55.790;37.572;2023-03-26T15:32:40;97827.89;;;9.81;83.42
20228;BME280;12195;55.790;37.572;2023-03-26T15:41:15;97825.39;;;9.79;83.31
20228;BME280;12195;55.790;37.572;2023-03-26T15:46:52;97834.46;;;9.75;83.22
20228;BME280;12195;55.790;37.572;2023-03-26T15:49:52;97825.88;;;9.73;83.26
20228;BME280;12195;55.790;37.572;2023-03-26T15:55:19;97830.78;;;9.67;82.97
20228;BME280;12195;55.790;37.572;2023-03-26T16:00:22;97832.32;;;9.69;83.07
20228;BME280;12195;55.790;37.572;2023-03-26T16:03:25;97829.84;;;9.68;83.27
20228;BME280;12195;55.790;37.572;2023-03-26T16:11:43;97838.28;;;9.71;83.00
20228;BME280;12195;55.790;37.572;2023-03-26T16:14:20;97841.75;;;9.72;82.56
20228;BME280;12195;55.790;37.572;2023-03-26T16:16:55;97830.55;;;9.70;82.76
20228;BME280;12195;55.790;37.572;2023-03-26T16:19:34;97834.46;;;9.75;83.14
20228;BME280;12195;55.790;37.572;2023-03-26T16:22:11;97836.96;;;9.77;83.02
20228;BME280;12195;55.790;37.572;2023-03-26T16:24:45;97836.84;;;9.78;82.92
20228;BME280;12195;55.790;37.572;2023-03-26T16:27:25;97828.46;;;9.84;82.79
20228;BME280;12195;55.790;37.572;2023-03-26T16:30:06;97839.23;;;10.02;82.38
20228;BME280;12195;55.790;37.572;2023-03-26T16:32:50;97833.70;;;9.84;81.96
20228;BME280;12195;55.790;37.572;2023-03-26T16:35:39;97832.29;;;9.80;81.85
20228;BME280;12195;55.790;37.572;2023-03-26T16:38:14;97833.38;;;9.78;82.11
20228;BME280;12195;55.790;37.572;2023-03-26T16:43:38;97829.22;;;9.75;82.08
20228;BME280;12195;55.790;37.572;2023-03-26T16:46:55;97828.25;;;9.76;81.91
20228;BME280;12195;55.790;37.572;2023-03-26T16:48:43;97839.70;;;9.75;82.01
20228;BME280;12195;55.790;37.572;2023-03-26T16:54:19;97840.66;;;9.74;82.30
20228;BME280;12195;55.790;37.572;2023-03-26T17:00:04;97840.91;;;9.71;81.93
20228;BME280;12195;55.790;37.572;2023-03-26T17:02:52;97841.75;;;9.72;82.16
20228;BME280;12195;55.790;37.572;2023-03-26T17:05:28;97839.94;;;9.72;82.02
20228;BME280;12195;55.790;37.572;2023-03-26T17:08:13;97845.91;;;9.74;81.83
20228;BME280;12195;55.790;37.572;2023-03-26T17:13:45;97843.41;;;9.73;81.72
20228;BME280;12195;55.790;37.572;2023-03-26T17:16:27;97842.44;;;9.74;81.51
20228;BME280;12195;55.790;37.572;2023-03-26T17:22:07;97845.06;;;9.74;81.43
20228;BME280;12195;55.790;37.572;2023-03-26T17:24:48;97837.32;;;9.72;81.70
20228;BME280;12195;55.790;37.572;2023-03-26T17:27:45;97848.64;;;9.73;81.29
20228;BME280;12195;55.790;37.572;2023-03-26T17:35:47;97845.69;;;9.66;81.56
20228;BME280;12195;55.790;37.572;2023-03-26T17:41:00;97845.93;;;9.63;81.52
20228;BME280;12195;55.790;37.572;2023-03-26T17:43:49;97844.39;;;9.61;81.69
20228;BME280;12195;55.790;37.572;2023-03-26T17:46:33;97839.16;;;9.61;81.79
20228;BME280;12195;55.790;37.572;2023-03-26T17:49:12;97835.57;;;9.62;81.19
20228;BME280;12195;55.790;37.572;2023-03-26T17:54:37;97837.97;;;9.54;81.05
20228;BME280;12195;55.790;37.572;2023-03-26T18:00:18;97843.84;;;9.46;81.67
20228;BME280;12195;55.790;37.572;2023-03-26T18:02:51;97844.64;;;9.47;81.51
20228;BME280;12195;55.790;37.572;2023-03-26T18:05:27;97845.03;;;9.42;81.62
20228;BME280;12195;55.790;37.572;2023-03-26T18:11:26;97844.08;;;9.32;82.29
20228;BME280;12195;55.790;37.572;2023-03-26T18:16:39;97836.84;;;9.25;82.19
20228;BME280;12195;55.790;37.572;2023-03-26T18:19:15;97843.27;;;9.21;82.50
20228;BME280;12195;55.790;37.572;2023-03-26T18:21:57;97842.81;;;9.16;82.71
20228;BME280;12195;55.790;37.572;2023-03-26T18:24:31;97849.94;;;9.14;82.92
20228;BME280;12195;55.790;37.572;2023-03-26T18:27:09;97852.09;;;9.09;83.41
20228;BME280;12195;55.790;37.572;2023-03-26T18:32:31;97833.88;;;9.07;83.26
20228;BME280;12195;55.790;37.572;2023-03-26T18:35:18;97840.08;;;9.06;83.27
20228;BME280;12195;55.790;37.572;2023-03-26T18:37:53;97834.14;;;9.04;83.64
20228;BME280;12195;55.790;37.572;2023-03-26T18:40:31;97840.31;;;9.03;83.61
20228;BME280;12195;55.790;37.572;2023-03-26T18:43:01;97832.57;;;9.02;83.79
20228;BME280;12195;55.790;37.572;2023-03-26T18:45:37;97831.88;;;9.00;84.14